Time;durP1;ratioP1;P1;durP2;ratioP2;P2;SDS_P1;SDS_P2;PMS_P1;PMS_P2;Temp;Humidity;BMP_temperature;BMP_pressure;BME280_temperature;BME280_humidity;BME280_pressure;Samples;Min_cycle;Max_cycle;Signal;HPM_P1;HPM_P2
2022/07/29 00:01:54;;;;;;;2.80;2.70;;;;;;;;;;4972798;28;20830;-81
2022/07/29 00:04:20;;;;;;;3.27;2.97;;;;;;;;;;4973593;28;20474;-82
2022/07/29 00:06:46;;;;;;;3.20;2.93;;;;;;;;;;4973620;28;20425;-82
2022/07/29 00:09:12;;;;;;;3.97;3.67;;;;;;;;;;4973401;28;20445;-81
2022/07/29 00:11:38;;;;;;;3.57;3.37;;;;;;;;;;4973382;28;20449;-82
2022/07/29 00:14:04;;;;;;;3.63;3.13;;;;;;;;;;4973043;28;20214;-81
2022/07/29 00:16:30;;;;;;;6.20;3.03;;;;;;;;;;4973648;28;20418;-81
2022/07/29 00:18:56;;;;;;;2.90;2.80;;;;;;;;;;4973748;28;20533;-81
2022/07/29 00:21:22;;;;;;;3.10;3.00;;;;;;;;;;4977106;28;20433;-81
2022/07/29 00:23:48;;;;;;;3.10;3.00;;;;;;;;;;4976874;28;20425;-81
2022/07/29 00:26:14;;;;;;;3.57;3.47;;;;;;;;;;4977572;28;20426;-82
2022/07/29 00:28:40;;;;;;;2.87;2.87;;;;;;;;;;4992107;28;20428;-81
2022/07/29 00:31:06;;;;;;;3.77;3.63;;;;;;;;;;4977048;28;20433;-82
2022/07/29 00:33:32;;;;;;;3.90;3.00;;;;;;;;;;4976315;28;20477;-80
2022/07/29 00:35:58;;;;;;;6.20;3.27;;;;;;;;;;4991826;28;20429;-82
2022/07/29 00:38:24;;;;;;;3.60;3.40;;;;;;;;;;4987399;28;20444;-82
2022/07/29 00:40:50;;;;;;;3.43;3.33;;;;;;;;;;4991864;28;20186;-81
2022/07/29 00:43:17;;;;;;;3.53;3.23;;;;;;;;;;4990024;28;20445;-82
2022/07/29 00:45:43;;;;;;;3.97;3.50;;;;;;;;;;4977161;28;20487;-79
2022/07/29 00:48:10;;;;;;;5.00;4.10;;;;;;;;;;4976715;28;20532;-82
2022/07/29 00:50:36;;;;;;;3.07;2.97;;;;;;;;;;4977075;28;20926;-82
2022/07/29 00:53:03;;;;;;;3.77;3.67;;;;;;;;;;4976176;28;20504;-81
2022/07/29 00:55:29;;;;;;;3.60;3.50;;;;;;;;;;4976689;28;20445;-82
2022/07/29 00:57:55;;;;;;;3.47;3.27;;;;;;;;;;4976527;28;20426;-81
2022/07/29 01:00:22;;;;;;;6.60;3.43;;;;;;;;;;4975148;28;20473;-81
2022/07/29 01:02:49;;;;;;;3.60;3.50;;;;;;;;;;4975722;28;20425;-82
2022/07/29 01:05:15;;;;;;;6.30;3.33;;;;;;;;;;4976720;28;20452;-81
2022/07/29 01:07:41;;;;;;;3.73;3.23;;;;;;;;;;4976386;28;20430;-82
2022/07/29 01:10:09;;;;;;;4.00;3.43;;;;;;;;;;4976582;28;20789;-82
2022/07/29 01:12:37;;;;;;;3.13;3.03;;;;;;;;;;4975837;28;20458;-81
2022/07/29 01:15:04;;;;;;;13.23;3.70;;;;;;;;;;4972283;28;20819;-81
2022/07/29 01:17:34;;;;;;;5.93;3.20;;;;;;;;;;4970139;28;20434;-81
2022/07/29 01:20:03;;;;;;;3.30;3.20;;;;;;;;;;4976411;28;20430;-81
2022/07/29 01:22:36;;;;;;;4.00;3.70;;;;;;;;;;4976051;28;20425;-80
2022/07/29 01:25:02;;;;;;;5.50;3.07;;;;;;;;;;4975188;28;20465;-81
2022/07/29 01:27:31;;;;;;;7.43;2.97;;;;;;;;;;4974051;28;20982;-82
2022/07/29 01:29:58;;;;;;;5.20;3.47;;;;;;;;;;4975968;28;20437;-81
2022/07/29 01:32:29;;;;;;;7.53;3.30;;;;;;;;;;4975389;28;20457;-79
2022/07/29 01:34:58;;;;;;;3.83;3.27;;;;;;;;;;4976240;28;20478;-81
2022/07/29 01:37:27;;;;;;;7.20;2.73;;;;;;;;;;4976125;28;20449;-81
2022/07/29 01:39:54;;;;;;;4.00;3.70;;;;;;;;;;4976008;28;20437;-82
2022/07/29 01:42:29;;;;;;;7.73;2.93;;;;;;;;;;4974340;28;20915;-81
2022/07/29 01:45:02;;;;;;;3.17;3.03;;;;;;;;;;4975889;28;20448;-81
2022/07/29 01:47:37;;;;;;;5.40;3.40;;;;;;;;;;4975844;28;20445;-82
2022/07/29 01:50:06;;;;;;;3.10;3.00;;;;;;;;;;4976013;28;20508;-82
2022/07/29 01:52:36;;;;;;;3.43;3.33;;;;;;;;;;4974066;28;20594;-81
2022/07/29 01:55:05;;;;;;;3.53;3.43;;;;;;;;;;4975437;28;20575;-82
2022/07/29 01:57:32;;;;;;;3.27;3.17;;;;;;;;;;4974558;28;20775;-81
2022/07/29 02:00:00;;;;;;;5.67;4.37;;;;;;;;;;4975858;28;20437;-81
2022/07/29 02:02:26;;;;;;;8.03;7.43;;;;;;;;;;4974736;28;20426;-82
2022/07/29 02:04:53;;;;;;;5.30;5.10;;;;;;;;;;4975659;28;20430;-82
2022/07/29 02:07:20;;;;;;;4.23;4.13;;;;;;;;;;4975428;28;20520;-82
2022/07/29 02:09:47;;;;;;;11.33;4.40;;;;;;;;;;4975398;28;20434;-82
2022/07/29 02:12:15;;;;;;;4.37;4.07;;;;;;;;;;4974652;28;20442;-82
2022/07/29 02:14:44;;;;;;;3.20;3.10;;;;;;;;;;4975467;28;20575;-82
2022/07/29 02:17:11;;;;;;;12.20;11.10;;;;;;;;;;4975198;28;20418;-82
2022/07/29 02:19:38;;;;;;;9.23;8.00;;;;;;;;;;4975488;28;20449;-81
2022/07/29 02:22:05;;;;;;;5.47;4.97;;;;;;;;;;4975213;28;20852;-82
2022/07/29 02:24:31;;;;;;;5.57;5.27;;;;;;;;;;4975049;28;20787;-80
2022/07/29 02:26:58;;;;;;;6.10;4.67;;;;;;;;;;4975413;28;20481;-81
2022/07/29 02:29:26;;;;;;;3.57;3.37;;;;;;;;;;4975219;28;20474;-82
2022/07/29 02:31:53;;;;;;;3.80;3.60;;;;;;;;;;4974436;28;20881;-82
2022/07/29 02:34:20;;;;;;;3.87;3.67;;;;;;;;;;4974863;28;20481;-81
2022/07/29 02:36:47;;;;;;;3.33;3.23;;;;;;;;;;4975261;28;20422;-81
2022/07/29 02:39:14;;;;;;;3.23;3.17;;;;;;;;;;4974704;28;20465;-80
2022/07/29 02:41:45;;;;;;;3.03;2.93;;;;;;;;;;4974464;28;20422;-81
2022/07/29 02:44:13;;;;;;;4.03;3.57;;;;;;;;;;4973249;28;20434;-81
2022/07/29 02:46:43;;;;;;;3.60;3.40;;;;;;;;;;4974605;28;20430;-81
2022/07/29 02:49:12;;;;;;;4.17;3.60;;;;;;;;;;4974813;28;20449;-82
2022/07/29 02:51:43;;;;;;;8.90;3.50;;;;;;;;;;4988061;28;20422;-81
2022/07/29 02:54:10;;;;;;;3.40;3.20;;;;;;;;;;4973982;28;20521;-82
2022/07/29 02:56:38;;;;;;;3.93;3.73;;;;;;;;;;4974178;28;20904;-81
2022/07/29 02:59:06;;;;;;;3.60;3.40;;;;;;;;;;4974555;28;20442;-81
2022/07/29 03:01:33;;;;;;;3.50;3.40;;;;;;;;;;4973612;28;20989;-81
2022/07/29 03:04:02;;;;;;;5.07;3.47;;;;;;;;;;4974193;28;20449;-82
2022/07/29 03:06:28;;;;;;;10.73;4.20;;;;;;;;;;4988075;28;20470;-82
2022/07/29 03:08:55;;;;;;;3.60;3.43;;;;;;;;;;4978972;28;20423;-81
2022/07/29 03:11:22;;;;;;;5.00;4.03;;;;;;;;;;4967893;28;20602;-81
2022/07/29 03:13:49;;;;;;;3.97;3.67;;;;;;;;;;4973690;28;20481;-80
2022/07/29 03:16:15;;;;;;;4.23;3.83;;;;;;;;;;4973677;28;20977;-81
2022/07/29 03:18:41;;;;;;;10.40;2.90;;;;;;;;;;4973003;28;20931;-81
2022/07/29 03:21:08;;;;;;;3.70;3.60;;;;;;;;;;4974600;28;20777;-81
2022/07/29 03:23:34;;;;;;;3.57;3.47;;;;;;;;;;4973632;28;20517;-81
2022/07/29 03:26:00;;;;;;;3.00;2.90;;;;;;;;;;4974012;28;20465;-81
2022/07/29 03:28:27;;;;;;;3.30;3.20;;;;;;;;;;4970742;28;20434;-81
2022/07/29 03:30:53;;;;;;;3.33;3.13;;;;;;;;;;4964901;28;20440;-81
2022/07/29 03:33:19;;;;;;;5.13;2.53;;;;;;;;;;4973797;28;20461;-81
2022/07/29 03:35:45;;;;;;;3.27;2.97;;;;;;;;;;4973844;28;20883;-81
2022/07/29 03:38:11;;;;;;;3.10;3.00;;;;;;;;;;4972085;28;20422;-81
2022/07/29 03:41:04;;;;;;;3.00;2.90;;;;;;;;;;4974309;28;20426;-78
2022/07/29 03:43:36;;;;;;;3.47;2.40;;;;;;;;;;4986471;28;20421;-81
2022/07/29 03:46:02;;;;;;;8.73;3.27;;;;;;;;;;4973110;28;20488;-81
2022/07/29 03:48:31;;;;;;;3.10;3.00;;;;;;;;;;4973757;28;20426;-79
2022/07/29 03:50:57;;;;;;;7.40;3.47;;;;;;;;;;4988740;28;20445;-80
2022/07/29 03:53:23;;;;;;;2.87;2.87;;;;;;;;;;4972768;28;20469;-80
2022/07/29 03:55:52;;;;;;;2.63;2.50;;;;;;;;;;4974021;28;20985;-82
2022/07/29 03:58:19;;;;;;;4.10;3.40;;;;;;;;;;4973649;28;20448;-78
2022/07/29 04:00:45;;;;;;;4.10;3.10;;;;;;;;;;4973102;28;20500;-81
2022/07/29 04:03:11;;;;;;;3.60;3.30;;;;;;;;;;4972220;28;20434;-81
2022/07/29 04:05:37;;;;;;;5.23;3.70;;;;;;;;;;4973095;28;20445;-82
2022/07/29 04:08:03;;;;;;;3.30;3.10;;;;;;;;;;4973739;28;20430;-82
2022/07/29 04:10:29;;;;;;;3.47;3.37;;;;;;;;;;4973520;28;20201;-81
2022/07/29 04:12:55;;;;;;;4.23;3.30;;;;;;;;;;4973178;28;20437;-81
2022/07/29 04:15:21;;;;;;;3.70;3.10;;;;;;;;;;4973617;28;20489;-82
2022/07/29 04:17:47;;;;;;;4.43;4.10;;;;;;;;;;4973160;28;20434;-82
2022/07/29 04:20:13;;;;;;;3.73;3.57;;;;;;;;;;4973508;28;20826;-82
2022/07/29 04:22:40;;;;;;;6.13;3.63;;;;;;;;;;4973500;28;20913;-81
2022/07/29 04:25:06;;;;;;;5.67;3.60;;;;;;;;;;4973538;28;20782;-81
2022/07/29 04:27:32;;;;;;;3.00;3.00;;;;;;;;;;4973755;28;21118;-80
2022/07/29 04:29:58;;;;;;;4.53;3.57;;;;;;;;;;4973243;28;20932;-83
2022/07/29 04:32:24;;;;;;;4.93;4.30;;;;;;;;;;4972465;28;20418;-81
2022/07/29 04:34:50;;;;;;;3.50;3.30;;;;;;;;;;4973290;28;21016;-82
2022/07/29 04:37:16;;;;;;;3.60;3.47;;;;;;;;;;4973725;28;20425;-78
2022/07/29 04:39:42;;;;;;;4.13;3.93;;;;;;;;;;4973247;28;20229;-79
2022/07/29 04:42:08;;;;;;;8.43;4.00;;;;;;;;;;4972735;28;21077;-81
2022/07/29 04:44:34;;;;;;;3.43;3.33;;;;;;;;;;4973290;28;20452;-82
2022/07/29 04:47:00;;;;;;;4.23;4.03;;;;;;;;;;4973039;28;20437;-81
2022/07/29 04:49:26;;;;;;;7.47;3.70;;;;;;;;;;4973091;28;20426;-80
2022/07/29 04:51:52;;;;;;;11.50;4.43;;;;;;;;;;4972951;28;20434;-77
2022/07/29 04:54:18;;;;;;;4.63;4.27;;;;;;;;;;4972741;28;20978;-79
2022/07/29 04:56:46;;;;;;;4.30;4.00;;;;;;;;;;4973431;28;20426;-79
2022/07/29 04:59:12;;;;;;;4.10;3.70;;;;;;;;;;4973203;28;20430;-80
2022/07/29 05:01:38;;;;;;;5.30;4.87;;;;;;;;;;4972250;28;20428;-82
2022/07/29 05:04:04;;;;;;;3.97;3.87;;;;;;;;;;4972579;28;20462;-81
2022/07/29 05:06:30;;;;;;;4.00;3.80;;;;;;;;;;4974956;28;20785;-85
2022/07/29 05:08:56;;;;;;;5.70;3.90;;;;;;;;;;4976609;28;20945;-82
2022/07/29 05:11:21;;;;;;;8.43;4.03;;;;;;;;;;4976812;28;20496;-83
2022/07/29 05:13:47;;;;;;;3.90;3.80;;;;;;;;;;4971561;28;20475;-80
2022/07/29 05:16:14;;;;;;;8.77;4.97;;;;;;;;;;4974723;28;20465;-83
2022/07/29 05:18:40;;;;;;;6.90;5.17;;;;;;;;;;4976155;28;20646;-83
2022/07/29 05:21:06;;;;;;;5.13;4.87;;;;;;;;;;4991393;28;20724;-80
2022/07/29 05:23:32;;;;;;;3.67;3.40;;;;;;;;;;4977598;28;20513;-82
2022/07/29 05:25:58;;;;;;;5.83;4.50;;;;;;;;;;4973841;28;20917;-79
2022/07/29 05:28:23;;;;;;;5.53;5.00;;;;;;;;;;4975955;28;20449;-82
2022/07/29 05:30:49;;;;;;;4.27;4.07;;;;;;;;;;4975893;28;20429;-82
2022/07/29 05:33:15;;;;;;;7.83;4.53;;;;;;;;;;4975384;28;20438;-81
2022/07/29 05:35:41;;;;;;;3.63;3.53;;;;;;;;;;4976181;28;20194;-82
2022/07/29 05:38:07;;;;;;;3.93;3.73;;;;;;;;;;4975893;28;20481;-83
2022/07/29 05:40:34;;;;;;;4.27;3.87;;;;;;;;;;4976328;28;20418;-82
2022/07/29 05:43:00;;;;;;;3.70;3.50;;;;;;;;;;4975503;28;20778;-82
2022/07/29 05:45:26;;;;;;;3.87;3.50;;;;;;;;;;4975738;28;20462;-81
2022/07/29 05:47:51;;;;;;;3.40;3.20;;;;;;;;;;4975671;28;20477;-82
2022/07/29 05:50:17;;;;;;;3.47;3.37;;;;;;;;;;4972620;28;20437;-81
2022/07/29 05:52:43;;;;;;;3.93;3.73;;;;;;;;;;4975223;28;20190;-82
2022/07/29 05:55:09;;;;;;;4.00;3.73;;;;;;;;;;4974376;28;20501;-82
2022/07/29 05:57:35;;;;;;;3.90;2.80;;;;;;;;;;4975253;28;20186;-82
2022/07/29 06:00:01;;;;;;;3.20;3.10;;;;;;;;;;4974644;28;20438;-82
2022/07/29 06:02:27;;;;;;;3.20;2.90;;;;;;;;;;4974678;28;20429;-82
2022/07/29 06:04:53;;;;;;;3.57;3.47;;;;;;;;;;4975648;28;20426;-82
2022/07/29 06:07:19;;;;;;;3.70;3.00;;;;;;;;;;4973491;28;20438;-80
2022/07/29 06:09:45;;;;;;;2.90;2.80;;;;;;;;;;4975547;28;20434;-81
2022/07/29 06:12:11;;;;;;;7.97;3.13;;;;;;;;;;4974123;28;20953;-81
2022/07/29 06:14:38;;;;;;;4.03;2.93;;;;;;;;;;4974138;28;20525;-81
2022/07/29 06:17:04;;;;;;;3.37;3.10;;;;;;;;;;4973677;28;20429;-74
2022/07/29 06:19:30;;;;;;;5.70;3.87;;;;;;;;;;4974102;28;20453;-80
2022/07/29 06:21:56;;;;;;;4.30;3.90;;;;;;;;;;4974041;28;20926;-75
2022/07/29 06:24:22;;;;;;;3.30;3.13;;;;;;;;;;4975667;28;20426;-75
2022/07/29 06:26:48;;;;;;;4.03;3.77;;;;;;;;;;4975334;28;20433;-74
2022/07/29 06:29:14;;;;;;;168.93;18.87;;;;;;;;;;4975254;28;20481;-79
2022/07/29 06:31:40;;;;;;;45.83;7.23;;;;;;;;;;4975268;28;20458;-77
2022/07/29 06:34:06;;;;;;;326.10;31.60;;;;;;;;;;4973549;28;20505;-76
2022/07/29 06:36:35;;;;;;;22.07;5.30;;;;;;;;;;4974788;28;20464;-79
2022/07/29 06:39:01;;;;;;;5.23;2.97;;;;;;;;;;4974846;28;20422;-80
2022/07/29 06:41:27;;;;;;;3.00;2.90;;;;;;;;;;4975122;28;20433;-78
2022/07/29 06:43:53;;;;;;;3.63;3.43;;;;;;;;;;4974990;28;20421;-79
2022/07/29 06:46:20;;;;;;;3.47;3.17;;;;;;;;;;4974791;28;20418;-80
2022/07/29 06:48:47;;;;;;;3.63;3.10;;;;;;;;;;4975131;28;20429;-80
2022/07/29 06:51:13;;;;;;;10.47;3.00;;;;;;;;;;4974828;28;20814;-81
2022/07/29 06:53:39;;;;;;;5.50;3.20;;;;;;;;;;4974450;28;20481;-81
2022/07/29 06:56:08;;;;;;;10.87;2.60;;;;;;;;;;4974958;28;20935;-76
2022/07/29 06:58:34;;;;;;;3.13;3.00;;;;;;;;;;4974968;28;20426;-80
2022/07/29 07:01:02;;;;;;;6.33;2.90;;;;;;;;;;4973215;28;20953;-78
2022/07/29 07:03:28;;;;;;;2.50;2.43;;;;;;;;;;4973058;28;20441;-78
2022/07/29 07:05:54;;;;;;;3.80;2.90;;;;;;;;;;4974834;28;20426;-78
2022/07/29 07:08:21;;;;;;;5.77;3.10;;;;;;;;;;4974972;28;20427;-80
2022/07/29 07:10:48;;;;;;;2.60;2.50;;;;;;;;;;4974633;28;20926;-81
2022/07/29 07:13:14;;;;;;;3.23;1.90;;;;;;;;;;4974198;28;20497;-81
2022/07/29 07:15:40;;;;;;;6.57;3.03;;;;;;;;;;4974221;28;20429;-78
2022/07/29 07:18:07;;;;;;;2.70;2.60;;;;;;;;;;4974644;28;20426;-79
2022/07/29 07:20:33;;;;;;;5.40;2.37;;;;;;;;;;4974590;28;20422;-79
2022/07/29 07:22:59;;;;;;;5.80;3.00;;;;;;;;;;4974136;28;20517;-80
2022/07/29 07:25:25;;;;;;;3.87;2.10;;;;;;;;;;4974460;28;20422;-79
2022/07/29 07:27:51;;;;;;;1.60;1.60;;;;;;;;;;4974196;28;20436;-81
2022/07/29 07:30:17;;;;;;;7.47;2.70;;;;;;;;;;4973776;28;20418;-80
2022/07/29 07:32:43;;;;;;;8.10;2.30;;;;;;;;;;4974063;28;20426;-80
2022/07/29 07:35:10;;;;;;;10.67;2.20;;;;;;;;;;4974204;28;20477;-81
2022/07/29 07:37:36;;;;;;;8.40;2.10;;;;;;;;;;4972937;28;20430;-80
2022/07/29 07:40:02;;;;;;;7.30;2.30;;;;;;;;;;4974227;28;20422;-79
2022/07/29 07:42:28;;;;;;;2.30;2.20;;;;;;;;;;4973766;28;20448;-78
2022/07/29 07:44:54;;;;;;;13.87;2.70;;;;;;;;;;4973099;28;20934;-81
2022/07/29 07:47:20;;;;;;;1.90;1.80;;;;;;;;;;4973778;28;20426;-80
2022/07/29 07:49:55;;;;;;;1.97;1.97;;;;;;;;;;4974080;28;20190;-79
2022/07/29 07:52:22;;;;;;;6.13;3.13;;;;;;;;;;4973892;28;20406;-81
2022/07/29 07:54:48;;;;;;;2.67;2.33;;;;;;;;;;4973996;28;20581;-79
2022/07/29 07:57:15;;;;;;;3.83;3.27;;;;;;;;;;4973962;28;20414;-79
2022/07/29 07:59:41;;;;;;;2.50;2.40;;;;;;;;;;4974055;28;20418;-79
2022/07/29 08:02:07;;;;;;;2.50;2.40;;;;;;;;;;4973123;28;20425;-81
2022/07/29 08:04:33;;;;;;;4.67;2.33;;;;;;;;;;4974134;28;20908;-76
2022/07/29 08:07:00;;;;;;;2.30;2.13;;;;;;;;;;4974016;28;20436;-79
2022/07/29 08:09:27;;;;;;;2.40;2.30;;;;;;;;;;4974129;28;20921;-81
2022/07/29 08:11:53;;;;;;;3.53;2.93;;;;;;;;;;4973540;28;20426;-75
2022/07/29 08:14:19;;;;;;;2.23;2.03;;;;;;;;;;4973750;28;20486;-78
2022/07/29 08:16:45;;;;;;;2.47;2.37;;;;;;;;;;4973646;28;20418;-79
2022/07/29 08:19:11;;;;;;;2.57;2.50;;;;;;;;;;4973971;28;20425;-78
2022/07/29 08:21:37;;;;;;;8.57;3.10;;;;;;;;;;4973910;28;20422;-77
2022/07/29 08:26:48;;;;;;;5.10;2.23;;;;;;;;;;4973825;28;20461;-79
2022/07/29 08:29:14;;;;;;;4.83;2.93;;;;;;;;;;4973874;28;20429;-79
2022/07/29 08:31:41;;;;;;;17.53;2.50;;;;;;;;;;4973374;28;20441;-81
2022/07/29 08:34:07;;;;;;;7.90;3.20;;;;;;;;;;4973218;28;20523;-80
2022/07/29 08:36:33;;;;;;;5.13;3.10;;;;;;;;;;4973745;28;20430;-81
2022/07/29 08:38:59;;;;;;;3.23;2.43;;;;;;;;;;4972947;28;20429;-78
2022/07/29 08:41:26;;;;;;;5.10;3.00;;;;;;;;;;4975417;28;20437;-78
2022/07/29 08:43:52;;;;;;;2.60;2.40;;;;;;;;;;4975558;28;20422;-68
2022/07/29 08:46:18;;;;;;;3.23;2.07;;;;;;;;;;4976487;28;20429;-70
2022/07/29 08:48:44;;;;;;;3.13;2.17;;;;;;;;;;4976905;28;20529;-68
2022/07/29 08:51:13;;;;;;;5.33;3.23;;;;;;;;;;4977189;28;20458;-68
2022/07/29 08:53:42;;;;;;;3.33;2.80;;;;;;;;;;4976233;28;20482;-68
2022/07/29 08:56:11;;;;;;;2.90;2.17;;;;;;;;;;4976891;28;20766;-69
2022/07/29 08:58:37;;;;;;;2.73;2.53;;;;;;;;;;4977086;28;20795;-71
2022/07/29 09:01:03;;;;;;;7.63;2.47;;;;;;;;;;4976618;28;20418;-68
2022/07/29 09:03:34;;;;;;;3.33;2.70;;;;;;;;;;4976605;28;20433;-71
2022/07/29 09:06:01;;;;;;;4.27;2.00;;;;;;;;;;4976138;28;20458;-71
2022/07/29 09:08:28;;;;;;;2.87;2.70;;;;;;;;;;4976720;28;20915;-72
2022/07/29 09:10:55;;;;;;;4.50;2.50;;;;;;;;;;4976839;28;20436;-71
2022/07/29 09:13:21;;;;;;;2.67;2.57;;;;;;;;;;4976257;28;20418;-72
2022/07/29 09:15:47;;;;;;;4.57;2.47;;;;;;;;;;4976443;28;20467;-72
2022/07/29 09:18:33;;;;;;;5.93;2.90;;;;;;;;;;4976716;28;20441;-71
2022/07/29 09:24:02;;;;;;;2.13;2.13;;;;;;;;;;4976322;28;20775;-71
2022/07/29 09:26:29;;;;;;;4.17;2.50;;;;;;;;;;4976576;28;20417;-70
2022/07/29 09:28:55;;;;;;;3.90;2.70;;;;;;;;;;4975912;28;20433;-72
2022/07/29 09:31:32;;;;;;;2.60;2.40;;;;;;;;;;4980131;28;20432;-72
2022/07/29 09:34:00;;;;;;;4.30;1.77;;;;;;;;;;4976122;28;20469;-70
2022/07/29 09:36:26;;;;;;;4.33;2.07;;;;;;;;;;4974470;28;20446;-72
2022/07/29 09:39:02;;;;;;;5.37;2.50;;;;;;;;;;4974905;28;20949;-71
2022/07/29 09:41:29;;;;;;;5.20;2.40;;;;;;;;;;4975109;28;20413;-71
2022/07/29 09:43:55;;;;;;;3.30;2.37;;;;;;;;;;4975943;28;20417;-71
2022/07/29 09:46:22;;;;;;;2.57;2.00;;;;;;;;;;4975968;28;20428;-71
2022/07/29 09:49:06;;;;;;;2.23;2.13;;;;;;;;;;4976224;28;20465;-72
2022/07/29 09:51:32;;;;;;;7.60;2.70;;;;;;;;;;4974958;28;20517;-72
2022/07/29 09:54:00;;;;;;;4.10;2.00;;;;;;;;;;4975548;28;20577;-72
2022/07/29 09:56:41;;;;;;;4.67;2.03;;;;;;;;;;4976187;28;20174;-71
2022/07/29 09:59:08;;;;;;;3.57;2.20;;;;;;;;;;4974818;28;20951;-72
2022/07/29 10:01:35;;;;;;;5.57;2.60;;;;;;;;;;4975382;28;20420;-71
2022/07/29 10:04:01;;;;;;;3.03;2.83;;;;;;;;;;4975331;28;20430;-72
2022/07/29 10:06:28;;;;;;;10.70;2.77;;;;;;;;;;4975912;28;20446;-72
2022/07/29 10:08:54;;;;;;;6.77;2.67;;;;;;;;;;4972122;28;20457;-72
2022/07/29 10:11:20;;;;;;;8.10;2.87;;;;;;;;;;4974810;28;20634;-71
2022/07/29 10:13:47;;;;;;;2.77;2.43;;;;;;;;;;4975006;28;20480;-72
2022/07/29 10:16:15;;;;;;;4.53;2.10;;;;;;;;;;4974031;28;20441;-72
2022/07/29 10:18:43;;;;;;;2.60;2.50;;;;;;;;;;4975406;28;20425;-72
2022/07/29 10:21:09;;;;;;;12.47;3.20;;;;;;;;;;4974729;28;20982;-71
2022/07/29 10:23:36;;;;;;;4.43;2.13;;;;;;;;;;4975070;28;20522;-71
2022/07/29 10:26:02;;;;;;;2.30;2.20;;;;;;;;;;4974800;28;20428;-72
2022/07/29 10:28:28;;;;;;;3.10;2.00;;;;;;;;;;4975312;28;20422;-71
2022/07/29 10:30:59;;;;;;;3.70;2.93;;;;;;;;;;4974387;28;20488;-82
2022/07/29 10:33:41;;;;;;;3.40;2.07;;;;;;;;;;4974598;28;20887;-87
2022/07/29 10:36:08;;;;;;;2.23;2.13;;;;;;;;;;4975300;28;20843;-84
2022/07/29 10:38:34;;;;;;;2.30;2.30;;;;;;;;;;4973366;28;20437;-85
2022/07/29 10:43:46;;;;;;;5.77;2.47;;;;;;;;;;4974278;28;20699;-81
2022/07/29 10:46:13;;;;;;;5.73;2.80;;;;;;;;;;4974335;28;20422;-84
2022/07/29 10:48:57;;;;;;;13.93;2.30;;;;;;;;;;4975099;28;20425;-84
2022/07/29 10:51:23;;;;;;;2.53;2.43;;;;;;;;;;4974980;28;20537;-83
2022/07/29 10:53:51;;;;;;;6.17;2.43;;;;;;;;;;4974458;28;20502;-82
2022/07/29 10:56:25;;;;;;;3.33;3.10;;;;;;;;;;4975008;28;20835;-81
2022/07/29 10:59:10;;;;;;;5.30;2.30;;;;;;;;;;4974448;28;20515;-83
2022/07/29 11:01:36;;;;;;;4.70;2.13;;;;;;;;;;4962476;28;20993;-83
2022/07/29 11:04:04;;;;;;;3.80;2.30;;;;;;;;;;4973213;28;20434;-83
2022/07/29 11:06:49;;;;;;;8.30;2.90;;;;;;;;;;4974550;28;20266;-83
2022/07/29 11:09:18;;;;;;;3.33;3.10;;;;;;;;;;4974491;28;20422;-83
2022/07/29 11:11:45;;;;;;;4.70;2.50;;;;;;;;;;4974685;28;20479;-77
2022/07/29 11:14:11;;;;;;;8.00;4.67;;;;;;;;;;4974111;28;20492;-83
2022/07/29 11:17:12;;;;;;;9.23;2.57;;;;;;;;;;4973878;28;20430;-85
2022/07/29 11:19:41;;;;;;;9.20;2.17;;;;;;;;;;4933922;29;20470;-70
2022/07/29 11:22:09;;;;;;;2.73;2.53;;;;;;;;;;4962409;28;20418;-71
2022/07/29 11:24:35;;;;;;;3.90;2.40;;;;;;;;;;4973279;28;20441;-82
2022/07/29 11:27:10;;;;;;;11.23;2.77;;;;;;;;;;4974222;28;20474;-82
2022/07/29 11:29:40;;;;;;;3.43;2.60;;;;;;;;;;4973923;28;20758;-83
2022/07/29 11:32:10;;;;;;;4.63;2.60;;;;;;;;;;4973888;28;20418;-83
2022/07/29 11:34:40;;;;;;;3.90;2.00;;;;;;;;;;4974312;28;20482;-82
2022/07/29 11:37:09;;;;;;;4.63;3.07;;;;;;;;;;4974114;28;20469;-82
2022/07/29 11:39:44;;;;;;;2.50;2.40;;;;;;;;;;4974265;28;20432;-83
2022/07/29 11:42:21;;;;;;;4.40;2.53;;;;;;;;;;4973838;28;20418;-83
2022/07/29 11:45:01;;;;;;;3.67;2.17;;;;;;;;;;4973345;28;20457;-83
2022/07/29 11:47:28;;;;;;;2.90;2.70;;;;;;;;;;4964086;28;20432;-82
2022/07/29 11:49:56;;;;;;;3.27;3.03;;;;;;;;;;4973772;28;20580;-83
2022/07/29 11:52:22;;;;;;;2.83;2.50;;;;;;;;;;4973881;28;20435;-83
2022/07/29 11:54:48;;;;;;;2.90;2.57;;;;;;;;;;4988805;28;20485;-83
2022/07/29 11:57:20;;;;;;;2.73;2.53;;;;;;;;;;4974079;28;20421;-82
2022/07/29 11:59:47;;;;;;;2.83;2.50;;;;;;;;;;4973270;28;20532;-81
2022/07/29 12:02:14;;;;;;;2.57;2.47;;;;;;;;;;4973409;28;20509;-82
2022/07/29 12:04:52;;;;;;;2.77;2.67;;;;;;;;;;4974149;28;20550;-83
2022/07/29 12:07:19;;;;;;;14.30;2.30;;;;;;;;;;4973883;28;20497;-83
2022/07/29 12:09:51;;;;;;;2.90;2.60;;;;;;;;;;4973597;28;20434;-83
2022/07/29 12:12:17;;;;;;;4.40;2.20;;;;;;;;;;4973523;28;20476;-84
2022/07/29 12:14:47;;;;;;;2.70;2.60;;;;;;;;;;4973601;28;20509;-83
2022/07/29 12:17:31;;;;;;;4.23;2.87;;;;;;;;;;4977909;28;20477;-83
2022/07/29 12:19:58;;;;;;;2.47;2.27;;;;;;;;;;4977378;28;20443;-83
2022/07/29 12:22:28;;;;;;;2.77;2.20;;;;;;;;;;4977320;28;20513;-83
2022/07/29 12:24:56;;;;;;;5.90;4.60;;;;;;;;;;4977793;28;20437;-83
2022/07/29 12:27:22;;;;;;;5.00;2.80;;;;;;;;;;4977756;28;20894;-83
2022/07/29 12:30:03;;;;;;;2.77;2.47;;;;;;;;;;4976842;28;20496;-83
2022/07/29 12:32:39;;;;;;;3.90;2.10;;;;;;;;;;4975777;28;20484;-83
2022/07/29 12:35:07;;;;;;;2.60;2.50;;;;;;;;;;4977499;28;20485;-84
2022/07/29 12:37:34;;;;;;;5.20;2.77;;;;;;;;;;4977540;28;20429;-83
2022/07/29 12:40:00;;;;;;;5.63;2.93;;;;;;;;;;4990584;28;20438;-83
2022/07/29 12:42:26;;;;;;;2.90;2.70;;;;;;;;;;4992138;28;20429;-83
2022/07/29 12:44:52;;;;;;;2.73;2.63;;;;;;;;;;4991866;28;20800;-83
2022/07/29 12:47:19;;;;;;;6.50;2.83;;;;;;;;;;4976665;28;20433;-83
2022/07/29 12:49:46;;;;;;;3.37;2.20;;;;;;;;;;4977259;28;20437;-83
2022/07/29 12:52:32;;;;;;;5.67;2.30;;;;;;;;;;4976677;28;20421;-82
2022/07/29 12:54:58;;;;;;;3.03;2.70;;;;;;;;;;4975662;28;20547;-82
2022/07/29 12:57:24;;;;;;;3.47;2.40;;;;;;;;;;4977147;28;20460;-83
2022/07/29 13:00:09;;;;;;;5.47;2.60;;;;;;;;;;4976766;28;20430;-83
2022/07/29 13:02:35;;;;;;;4.93;2.30;;;;;;;;;;4976734;28;20500;-82
2022/07/29 13:05:03;;;;;;;7.90;3.00;;;;;;;;;;4977016;28;20917;-83
2022/07/29 13:07:31;;;;;;;5.90;1.93;;;;;;;;;;4976995;28;20422;-81
2022/07/29 13:10:16;;;;;;;10.37;2.07;;;;;;;;;;4976919;28;20505;-83
2022/07/29 13:13:01;;;;;;;2.30;2.20;;;;;;;;;;4976442;28;20468;-84
2022/07/29 13:15:27;;;;;;;3.80;2.20;;;;;;;;;;4971004;28;20473;-82
2022/07/29 13:17:53;;;;;;;4.07;2.30;;;;;;;;;;4970103;28;20433;-80
2022/07/29 13:20:19;;;;;;;4.13;2.00;;;;;;;;;;4975115;28;20433;-82
2022/07/29 13:22:48;;;;;;;10.77;2.77;;;;;;;;;;4975402;28;20425;-82
2022/07/29 13:25:14;;;;;;;3.80;2.53;;;;;;;;;;4990475;28;20434;-83
2022/07/29 13:27:40;;;;;;;17.47;3.03;;;;;;;;;;4975413;28;20441;-83
2022/07/29 13:30:08;;;;;;;1.93;1.80;;;;;;;;;;4975588;28;20461;-83
2022/07/29 13:32:34;;;;;;;4.47;1.60;;;;;;;;;;4975916;28;20429;-82
2022/07/29 13:35:01;;;;;;;3.20;1.83;;;;;;;;;;4976428;28;20985;-82
2022/07/29 13:37:29;;;;;;;5.50;1.60;;;;;;;;;;4974935;28;20983;-82
2022/07/29 13:39:55;;;;;;;1.83;1.73;;;;;;;;;;4976182;28;20477;-81
2022/07/29 13:42:21;;;;;;;1.97;1.83;;;;;;;;;;4974809;28;20443;-82
2022/07/29 13:44:50;;;;;;;2.27;1.93;;;;;;;;;;4975885;28;20418;-82
2022/07/29 13:47:16;;;;;;;2.00;1.93;;;;;;;;;;4974961;28;20429;-82
2022/07/29 13:49:42;;;;;;;2.10;1.93;;;;;;;;;;4976039;28;20426;-82
2022/07/29 13:52:08;;;;;;;1.47;1.47;;;;;;;;;;4975742;28;20421;-77
2022/07/29 13:54:37;;;;;;;2.20;1.87;;;;;;;;;;4975747;28;20481;-82
2022/07/29 13:57:03;;;;;;;3.53;1.80;;;;;;;;;;4975525;28;20422;-80
2022/07/29 13:59:29;;;;;;;13.73;2.70;;;;;;;;;;4975571;28;20454;-80
2022/07/29 14:01:55;;;;;;;2.60;1.87;;;;;;;;;;4966213;28;21019;-84
2022/07/29 14:04:22;;;;;;;17.83;2.17;;;;;;;;;;4990685;28;20784;-78
2022/07/29 14:06:49;;;;;;;6.97;3.17;;;;;;;;;;4974834;28;20442;-74
2022/07/29 14:09:15;;;;;;;4.13;1.83;;;;;;;;;;4974593;28;20973;-79
2022/07/29 14:11:41;;;;;;;13.60;1.80;;;;;;;;;;4990130;28;20422;-78
2022/07/29 14:14:07;;;;;;;4.73;2.10;;;;;;;;;;4974441;28;20600;-77
2022/07/29 14:16:33;;;;;;;1.80;1.70;;;;;;;;;;4975412;28;20429;-83
2022/07/29 14:18:59;;;;;;;7.13;1.77;;;;;;;;;;4974895;28;20433;-75
2022/07/29 14:21:25;;;;;;;1.50;1.40;;;;;;;;;;4975487;28;20556;-81
2022/07/29 14:23:52;;;;;;;3.30;1.53;;;;;;;;;;4955587;28;20896;-83
2022/07/29 14:26:18;;;;;;;8.57;2.00;;;;;;;;;;4955979;28;20425;-82
2022/07/29 14:28:44;;;;;;;10.60;1.87;;;;;;;;;;4955602;28;20426;-80
2022/07/29 14:31:10;;;;;;;13.47;5.23;;;;;;;;;;4959503;28;20505;-80
2022/07/29 14:33:36;;;;;;;2.50;1.53;;;;;;;;;;4973867;28;20450;-84
2022/07/29 14:36:02;;;;;;;1.47;1.37;;;;;;;;;;4974078;28;21010;-82
2022/07/29 14:38:28;;;;;;;5.20;1.80;;;;;;;;;;4972878;28;20923;-81
2022/07/29 14:40:54;;;;;;;1.57;1.47;;;;;;;;;;4973667;28;20457;-79
2022/07/29 14:43:20;;;;;;;1.50;1.50;;;;;;;;;;4974743;28;20457;-79
2022/07/29 14:45:46;;;;;;;1.53;1.53;;;;;;;;;;4974858;28;20422;-80
2022/07/29 14:48:12;;;;;;;3.93;1.90;;;;;;;;;;4974999;28;20801;-84
2022/07/29 14:50:38;;;;;;;4.60;1.73;;;;;;;;;;4974498;28;20434;-83
2022/07/29 14:53:04;;;;;;;2.10;1.50;;;;;;;;;;4973273;28;20528;-74